createdAt,value
2022-08-28T00:01:00.578Z,23.30
2022-08-28T00:03:31.793Z,23.29
2022-08-28T00:06:03.801Z,23.22
2022-08-28T00:08:34.446Z,23.17
2022-08-28T00:11:06.253Z,23.15
2022-08-28T00:13:36.731Z,23.13
2022-08-28T00:16:07.507Z,23.09
2022-08-28T00:18:37.976Z,23.03
2022-08-28T00:21:09.355Z,22.98
2022-08-28T00:23:42.880Z,22.98
2022-08-28T00:26:34.031Z,22.95
2022-08-28T00:29:05.359Z,22.86
2022-08-28T00:31:40.762Z,22.88
2022-08-28T00:34:11.870Z,22.84
2022-08-28T00:36:42.772Z,22.78
2022-08-28T00:39:13.372Z,22.72
2022-08-28T00:41:46.973Z,22.64
2022-08-28T00:44:21.736Z,22.64
2022-08-28T00:46:54.755Z,22.57
2022-08-28T00:49:27.714Z,22.51
2022-08-28T00:52:11.901Z,22.41
2022-08-28T00:54:58.654Z,22.34
2022-08-28T00:57:34.623Z,22.25
2022-08-28T01:00:13.465Z,22.08
2022-08-28T01:02:45.456Z,21.96
2022-08-28T01:05:17.847Z,21.82
2022-08-28T01:07:50.070Z,21.75
2022-08-28T01:10:24.286Z,21.63
2022-08-28T01:12:56.124Z,21.57
2022-08-28T01:15:31.460Z,21.47
2022-08-28T01:18:08.838Z,21.36
2022-08-28T01:20:45.192Z,21.31
2022-08-28T01:23:22.404Z,21.22
2022-08-28T01:25:53.904Z,21.14
2022-08-28T01:28:24.525Z,21.05
2022-08-28T01:30:55.087Z,21.01
2022-08-28T01:33:27.944Z,20.95
2022-08-28T01:36:00.570Z,20.91
2022-08-28T01:38:31.201Z,20.87
2022-08-28T01:41:02.000Z,20.84
2022-08-28T01:43:33.017Z,20.83
2022-08-28T01:46:07.087Z,20.80
2022-08-28T01:48:41.544Z,20.78
2022-08-28T01:51:13.548Z,20.73
2022-08-28T01:53:46.687Z,20.65
2022-08-28T01:56:19.677Z,20.64
2022-08-28T01:58:50.392Z,20.58
2022-08-28T02:01:24.025Z,20.51
2022-08-28T02:03:54.705Z,20.43
2022-08-28T02:06:25.450Z,20.39
2022-08-28T02:08:57.049Z,20.40
2022-08-28T02:11:27.618Z,20.36
2022-08-28T02:13:58.700Z,20.33
2022-08-28T02:16:30.774Z,20.24
2022-08-28T02:19:01.695Z,20.17
2022-08-28T02:21:32.335Z,20.08
2022-08-28T02:24:03.284Z,20.06
2022-08-28T02:26:33.874Z,20.15
2022-08-28T02:29:04.540Z,20.12
2022-08-28T02:31:35.000Z,20.06
2022-08-28T02:34:07.162Z,20.02
2022-08-28T02:36:41.169Z,20.03
2022-08-28T02:39:12.165Z,20.02
2022-08-28T02:41:42.592Z,19.96
2022-08-28T02:44:13.062Z,19.93
2022-08-28T02:46:43.512Z,19.96
2022-08-28T02:49:14.063Z,19.92
2022-08-28T02:51:44.488Z,19.85
2022-08-28T02:54:14.795Z,19.82
2022-08-28T02:56:48.917Z,19.78
2022-08-28T02:59:19.622Z,19.74
2022-08-28T03:01:50.227Z,19.71
2022-08-28T03:04:20.846Z,19.59
2022-08-28T03:06:51.881Z,19.39
2022-08-28T03:09:22.397Z,19.30
2022-08-28T03:11:55.185Z,19.24
2022-08-28T03:14:27.531Z,19.15
2022-08-28T03:16:58.265Z,19.17
2022-08-28T03:19:28.850Z,19.08
2022-08-28T03:21:59.279Z,19.07
2022-08-28T03:24:30.000Z,19.04
2022-08-28T03:27:01.360Z,19.03
2022-08-28T03:29:32.830Z,19.00
2022-08-28T03:32:03.328Z,18.99
2022-08-28T03:34:34.859Z,18.90
2022-08-28T03:37:05.360Z,18.83
2022-08-28T03:39:35.823Z,18.83
2022-08-28T03:42:07.381Z,18.82
2022-08-28T03:44:40.290Z,18.72
2022-08-28T03:47:11.233Z,18.62
2022-08-28T03:49:42.169Z,18.63
2022-08-28T03:52:12.755Z,18.72
2022-08-28T03:54:43.667Z,18.74
2022-08-28T03:57:14.108Z,18.69
2022-08-28T03:59:44.721Z,18.64
2022-08-28T04:02:15.271Z,18.66
2022-08-28T04:04:46.000Z,18.76
2022-08-28T04:07:16.764Z,18.57
2022-08-28T04:09:48.495Z,18.48
2022-08-28T04:12:19.935Z,18.66
2022-08-28T04:14:50.651Z,18.18
2022-08-28T04:17:21.383Z,17.49
2022-08-28T04:19:55.391Z,16.59
2022-08-28T04:22:25.818Z,16.31
2022-08-28T04:24:56.270Z,16.25
2022-08-28T04:27:26.828Z,16.17
2022-08-28T04:29:57.325Z,16.08
2022-08-28T04:32:27.879Z,16.10
2022-08-28T04:34:58.505Z,16.16
2022-08-28T04:37:29.148Z,16.07
2022-08-28T04:40:00.772Z,16.07
2022-08-28T04:42:31.286Z,16.01
2022-08-28T04:45:01.847Z,16.00
2022-08-28T04:47:32.476Z,16.07
2022-08-28T04:50:03.754Z,16.04
2022-08-28T04:52:34.228Z,16.16
2022-08-28T04:55:05.944Z,16.11
2022-08-28T04:57:36.698Z,16.06
2022-08-28T05:00:09.095Z,16.10
2022-08-28T05:02:40.024Z,16.07
2022-08-28T05:05:11.207Z,16.13
2022-08-28T05:07:41.642Z,16.14
2022-08-28T05:10:16.253Z,16.41
2022-08-28T05:12:46.678Z,16.55
2022-08-28T05:15:16.617Z,16.44
2022-08-28T05:17:48.394Z,16.47
2022-08-28T05:20:19.170Z,16.62
2022-08-28T05:22:49.662Z,16.49
2022-08-28T05:25:20.249Z,16.24
2022-08-28T05:27:52.516Z,16.18
2022-08-28T05:30:23.038Z,16.18
2022-08-28T05:32:53.434Z,16.21
2022-08-28T05:35:23.270Z,16.24
2022-08-28T05:37:54.043Z,16.31
2022-08-28T05:40:24.714Z,16.18
2022-08-28T05:42:57.319Z,16.38
2022-08-28T05:45:28.120Z,16.68
2022-08-28T05:47:58.882Z,16.59
2022-08-28T05:50:29.382Z,16.67
2022-08-28T05:53:00.064Z,16.82
2022-08-28T05:55:30.999Z,16.41
2022-08-28T05:58:21.189Z,15.74
2022-08-28T06:00:51.712Z,15.19
2022-08-28T06:03:22.486Z,14.77
2022-08-28T06:05:58.958Z,14.43
2022-08-28T06:08:31.192Z,14.17
2022-08-28T06:11:03.683Z,13.96
2022-08-28T06:13:35.601Z,13.86
2022-08-28T06:16:10.574Z,13.85
2022-08-28T06:18:41.579Z,13.83
2022-08-28T06:21:11.978Z,13.59
2022-08-28T06:23:42.495Z,13.33
2022-08-28T06:26:12.774Z,13.31
2022-08-28T06:28:42.986Z,13.23
2022-08-28T06:31:23.263Z,13.11
2022-08-28T06:33:57.464Z,13.17
2022-08-28T06:36:30.757Z,13.06
2022-08-28T06:39:01.938Z,13.03
2022-08-28T06:41:33.506Z,12.99
2022-08-28T06:44:04.037Z,12.96
2022-08-28T06:46:36.809Z,12.97
2022-08-28T06:49:09.816Z,13.03
2022-08-28T06:51:41.018Z,12.97
2022-08-28T06:54:11.696Z,12.99
2022-08-28T06:56:42.483Z,13.02
2022-08-28T06:59:13.213Z,12.97
2022-08-28T07:01:43.828Z,12.92
2022-08-28T07:04:15.806Z,12.87
2022-08-28T07:06:49.303Z,12.84
2022-08-28T07:09:21.915Z,12.87
2022-08-28T07:11:52.698Z,12.89
2022-08-28T07:14:23.249Z,12.92
2022-08-28T07:16:56.221Z,12.92
2022-08-28T07:19:26.796Z,12.92
2022-08-28T07:21:56.663Z,12.90
2022-08-28T07:24:27.146Z,12.89
2022-08-28T07:26:57.691Z,12.87
2022-08-28T07:29:27.834Z,12.83
2022-08-28T07:32:00.280Z,12.84
2022-08-28T07:34:31.274Z,12.87
2022-08-28T07:37:05.472Z,12.93
2022-08-28T07:39:36.775Z,12.89
2022-08-28T07:42:07.279Z,12.83
2022-08-28T07:44:52.746Z,12.77
2022-08-28T07:47:24.200Z,12.83
2022-08-28T07:49:54.765Z,12.83
2022-08-28T07:52:24.689Z,12.75
2022-08-28T07:54:54.766Z,12.65
2022-08-28T07:57:25.680Z,12.60
2022-08-28T07:59:56.157Z,12.55
2022-08-28T08:02:26.668Z,12.46
2022-08-28T08:04:57.308Z,12.48
2022-08-28T08:07:30.851Z,12.38
2022-08-28T08:10:01.312Z,12.39
2022-08-28T08:12:32.629Z,12.36
2022-08-28T08:15:03.157Z,12.35
2022-08-28T08:17:33.670Z,12.42
2022-08-28T08:20:04.385Z,12.45
2022-08-28T08:22:35.742Z,12.35
2022-08-28T08:25:07.136Z,12.26
2022-08-28T08:27:42.370Z,12.28
2022-08-28T08:30:14.043Z,12.26
2022-08-28T08:32:44.638Z,12.36
2022-08-28T08:35:14.613Z,12.29
2022-08-28T08:37:44.963Z,12.20
2022-08-28T08:40:20.870Z,12.32
2022-08-28T08:42:58.567Z,12.31
2022-08-28T08:45:31.634Z,12.39
2022-08-28T08:48:03.409Z,12.38
2022-08-28T08:50:37.150Z,12.32
2022-08-28T08:53:29.706Z,12.29
2022-08-28T08:56:01.404Z,12.22
2022-08-28T08:58:44.654Z,12.29
2022-08-28T09:01:37.251Z,12.17
2022-08-28T09:04:29.382Z,12.18
2022-08-28T09:07:17.906Z,12.15
2022-08-28T09:09:57.174Z,12.15
2022-08-28T09:12:33.292Z,12.20
2022-08-28T09:15:16.195Z,12.17
2022-08-28T09:17:57.598Z,12.08
2022-08-28T09:20:33.215Z,12.10
2022-08-28T09:23:12.598Z,12.06
2022-08-28T09:25:47.018Z,12.06
2022-08-28T09:28:53.436Z,12.01
2022-08-28T09:31:37.069Z,12.10
2022-08-28T09:34:29.759Z,12.10
2022-08-28T09:37:03.546Z,12.06
2022-08-28T09:39:36.948Z,11.94
2022-08-28T09:42:34.931Z,12.02
2022-08-28T09:45:11.423Z,11.91
2022-08-28T09:47:52.416Z,11.91
2022-08-28T09:50:34.084Z,12.01
2022-08-28T09:53:13.664Z,11.97
2022-08-28T09:55:53.303Z,11.90
2022-08-28T09:58:25.828Z,11.85
2022-08-28T10:01:07.650Z,11.75
2022-08-28T10:04:00.529Z,11.87
2022-08-28T10:06:37.109Z,11.90
2022-08-28T10:09:30.021Z,11.83
2022-08-28T10:12:38.936Z,11.77
2022-08-28T10:15:47.661Z,11.93
2022-08-28T10:18:19.196Z,11.85
2022-08-28T10:21:17.932Z,11.80
2022-08-28T10:24:06.628Z,11.83
2022-08-28T10:27:09.110Z,11.84
2022-08-28T10:30:17.580Z,11.87
2022-08-28T10:33:05.711Z,11.83
2022-08-28T10:35:42.395Z,11.90
2022-08-28T10:38:31.283Z,11.95
2022-08-28T10:41:09.632Z,11.90
2022-08-28T10:43:53.756Z,11.97
2022-08-28T10:46:54.797Z,11.98
2022-08-28T10:49:39.337Z,11.95
2022-08-28T10:52:17.393Z,11.95
2022-08-28T10:55:00.535Z,11.93
2022-08-28T10:57:39.694Z,11.85
2022-08-28T11:00:14.459Z,11.87
2022-08-28T11:02:59.621Z,11.91
2022-08-28T11:06:15.075Z,11.91
2022-08-28T11:08:53.716Z,11.97
2022-08-28T11:12:04.292Z,11.95
2022-08-28T11:14:39.412Z,11.95
2022-08-28T11:17:26.544Z,11.94
2022-08-28T11:20:09.264Z,11.99
2022-08-28T11:22:54.250Z,12.01
2022-08-28T11:25:45.070Z,12.06
2022-08-28T11:28:26.019Z,12.10
2022-08-28T11:31:08.749Z,12.08
2022-08-28T11:33:53.746Z,12.10
2022-08-28T11:36:24.026Z,12.18
2022-08-28T11:38:57.027Z,12.21
2022-08-28T11:42:08.314Z,12.21
2022-08-28T11:44:48.576Z,12.22
2022-08-28T11:47:40.858Z,12.28
2022-08-28T11:50:16.641Z,12.29
2022-08-28T11:52:59.936Z,12.28
2022-08-28T11:55:36.222Z,12.26
2022-08-28T11:58:26.613Z,12.31
2022-08-28T12:01:07.363Z,12.32
2022-08-28T12:03:46.702Z,12.29
2022-08-28T12:06:17.649Z,12.34
2022-08-28T12:08:52.661Z,12.43
2022-08-28T12:11:41.283Z,12.45
2022-08-28T12:14:34.609Z,12.35
2022-08-28T12:17:24.500Z,12.34
2022-08-28T12:20:13.166Z,12.34
2022-08-28T12:22:54.396Z,12.43
2022-08-28T12:25:33.957Z,12.41
2022-08-28T12:28:28.016Z,12.35
2022-08-28T12:31:07.321Z,12.35
2022-08-28T12:33:44.937Z,12.34
2022-08-28T12:36:20.522Z,12.39
2022-08-28T12:38:53.543Z,12.45
2022-08-28T12:41:25.963Z,12.45
2022-08-28T12:44:00.053Z,12.38
2022-08-28T12:46:39.282Z,12.36
2022-08-28T12:49:31.046Z,12.49
2022-08-28T12:52:17.796Z,12.55
2022-08-28T12:54:49.681Z,12.52
2022-08-28T12:57:23.783Z,12.43
2022-08-28T12:59:56.894Z,12.43
2022-08-28T13:02:34.973Z,12.41
2022-08-28T13:05:12.362Z,12.41
2022-08-28T13:07:53.828Z,12.45
2022-08-28T13:10:51.154Z,12.55
2022-08-28T13:13:47.820Z,12.55
2022-08-28T13:16:42.046Z,12.56
2022-08-28T13:19:30.501Z,12.62
2022-08-28T13:22:10.536Z,12.56
2022-08-28T13:24:44.903Z,12.55
2022-08-28T13:27:18.361Z,12.56
2022-08-28T13:30:09.316Z,12.72
2022-08-28T13:32:41.554Z,12.67
2022-08-28T13:35:23.834Z,12.65
2022-08-28T13:37:55.659Z,12.57
2022-08-28T13:40:56.429Z,12.52
2022-08-28T13:43:24.003Z,12.55
2022-08-28T13:45:54.462Z,12.59
2022-08-28T13:48:28.073Z,12.46
2022-08-28T13:51:10.471Z,12.52
2022-08-28T13:53:41.689Z,12.55
2022-08-28T13:56:12.158Z,12.63
2022-08-28T13:58:42.505Z,12.57
2022-08-28T14:01:13.755Z,12.59
2022-08-28T14:03:46.059Z,12.48
2022-08-28T14:06:18.148Z,12.34
2022-08-28T14:08:48.711Z,12.34
2022-08-28T14:11:19.099Z,12.38
2022-08-28T14:13:55.386Z,12.46
2022-08-28T14:16:27.496Z,12.48
2022-08-28T14:18:58.264Z,12.42
2022-08-28T14:21:28.133Z,12.35
2022-08-28T14:23:58.630Z,12.45
2022-08-28T14:26:29.194Z,12.45
2022-08-28T14:29:08.268Z,12.56
2022-08-28T14:31:42.029Z,12.42
2022-08-28T14:34:15.854Z,12.43
2022-08-28T14:36:46.740Z,12.50
2022-08-28T14:39:17.219Z,12.59
2022-08-28T14:41:48.391Z,12.69
2022-08-28T14:44:19.525Z,12.77
2022-08-28T14:46:51.426Z,12.73
2022-08-28T14:49:25.283Z,12.57
2022-08-28T14:51:55.458Z,12.57
2022-08-28T14:54:27.294Z,12.53
2022-08-28T14:56:57.853Z,12.43
2022-08-28T14:59:31.302Z,12.31
2022-08-28T15:02:03.554Z,12.32
2022-08-28T15:04:39.358Z,12.31
2022-08-28T15:07:12.204Z,12.34
2022-08-28T15:09:44.222Z,12.45
2022-08-28T15:12:14.632Z,12.49
2022-08-28T15:14:54.861Z,12.52
2022-08-28T15:17:34.198Z,12.56
2022-08-28T15:20:06.211Z,12.50
2022-08-28T15:22:37.675Z,12.53
2022-08-28T15:25:08.777Z,12.50
2022-08-28T15:27:39.300Z,12.43
2022-08-28T15:30:10.274Z,12.45
2022-08-28T15:32:43.349Z,12.42
2022-08-28T15:35:14.509Z,12.49
2022-08-28T15:37:44.833Z,12.49
2022-08-28T15:40:33.688Z,12.57
2022-08-28T15:43:04.446Z,12.60
2022-08-28T15:45:37.632Z,12.65
2022-08-28T15:48:08.628Z,12.55
2022-08-28T15:50:40.115Z,12.43
2022-08-28T15:53:12.082Z,12.39
2022-08-28T15:55:42.997Z,12.36
2022-08-28T15:58:14.484Z,12.29
2022-08-28T16:00:44.981Z,12.26
2022-08-28T16:03:15.769Z,12.24
2022-08-28T16:05:47.276Z,12.18
2022-08-28T16:08:17.707Z,12.17
2022-08-28T16:10:52.886Z,12.17
2022-08-28T16:13:24.011Z,12.08
2022-08-28T16:15:54.844Z,12.15
2022-08-28T16:18:25.247Z,12.24
2022-08-28T16:20:55.771Z,12.20
2022-08-28T16:23:26.242Z,12.21
2022-08-28T16:25:56.713Z,12.26
2022-08-28T16:28:27.329Z,12.34
2022-08-28T16:30:58.080Z,12.38
2022-08-28T16:33:29.185Z,12.35
2022-08-28T16:35:59.266Z,12.32
2022-08-28T16:38:30.098Z,12.32
2022-08-28T16:41:00.904Z,12.36
2022-08-28T16:43:31.347Z,12.36
2022-08-28T16:46:01.715Z,12.32
2022-08-28T16:48:32.049Z,12.38
2022-08-28T16:51:02.572Z,12.45
2022-08-28T16:53:32.928Z,12.50
2022-08-28T16:56:02.815Z,12.56
2022-08-28T16:58:33.351Z,12.55
2022-08-28T17:01:05.076Z,12.57
2022-08-28T17:03:38.195Z,12.55
2022-08-28T17:06:22.210Z,12.46
2022-08-28T17:08:56.617Z,12.38
2022-08-28T17:11:28.395Z,12.39
2022-08-28T17:14:00.315Z,12.43
2022-08-28T17:16:33.288Z,12.43
2022-08-28T17:19:05.415Z,12.41
2022-08-28T17:21:54.042Z,12.43
2022-08-28T17:24:24.436Z,12.49
2022-08-28T17:26:55.177Z,12.56
2022-08-28T17:29:25.790Z,12.65
2022-08-28T17:31:57.923Z,12.67
2022-08-28T17:34:30.476Z,12.66
2022-08-28T17:37:01.167Z,12.48
2022-08-28T17:39:31.805Z,12.46
2022-08-28T17:42:01.736Z,12.55
2022-08-28T17:44:32.675Z,12.52
2022-08-28T17:47:03.687Z,12.52
2022-08-28T17:49:34.334Z,12.53
2022-08-28T17:52:05.202Z,12.59
2022-08-28T17:54:35.613Z,12.63
2022-08-28T17:57:06.280Z,12.63
2022-08-28T17:59:36.719Z,12.69
2022-08-28T18:02:07.463Z,12.70
2022-08-28T18:04:38.418Z,12.57
2022-08-28T18:07:08.816Z,12.50
2022-08-28T18:09:38.807Z,12.50
2022-08-28T18:12:12.455Z,12.55
2022-08-28T18:14:47.630Z,12.60
2022-08-28T18:17:22.371Z,12.62
2022-08-28T18:19:59.030Z,12.73
2022-08-28T18:22:31.227Z,12.69
2022-08-28T18:25:01.717Z,12.72
2022-08-28T18:27:33.101Z,12.57
2022-08-28T18:30:04.093Z,12.63
2022-08-28T18:32:34.875Z,12.60
2022-08-28T18:35:05.447Z,12.56
2022-08-28T18:37:36.233Z,12.49
2022-08-28T18:40:07.263Z,12.50
2022-08-28T18:42:39.948Z,12.49
2022-08-28T18:45:11.938Z,12.49
2022-08-28T18:47:42.708Z,12.52
2022-08-28T18:50:16.621Z,12.55
2022-08-28T18:52:47.335Z,12.50
2022-08-28T18:55:19.150Z,12.48
2022-08-28T18:57:49.791Z,12.48
2022-08-28T19:00:22.629Z,12.49
2022-08-28T19:02:54.354Z,12.52
2022-08-28T19:05:25.953Z,12.49
2022-08-28T19:07:57.276Z,12.52
2022-08-28T19:10:34.986Z,12.45
2022-08-28T19:13:07.612Z,12.48
2022-08-28T19:15:41.496Z,12.52
2022-08-28T19:18:14.201Z,12.46
2022-08-28T19:20:46.040Z,12.41
2022-08-28T19:23:19.384Z,12.41
2022-08-28T19:25:52.723Z,12.52
2022-08-28T19:28:23.942Z,12.50
2022-08-28T19:30:57.026Z,12.55
2022-08-28T19:33:34.127Z,12.52
2022-08-28T19:36:14.269Z,12.48
2022-08-28T19:38:46.162Z,12.48
2022-08-28T19:41:19.329Z,12.48
2022-08-28T19:43:50.660Z,12.49
2022-08-28T19:46:21.289Z,12.46
2022-08-28T19:48:57.123Z,12.49
2022-08-28T19:51:28.485Z,12.42
2022-08-28T19:54:00.803Z,12.46
2022-08-28T19:56:34.851Z,12.42
2022-08-28T19:59:07.648Z,12.43
2022-08-28T20:01:41.891Z,12.45
2022-08-28T20:04:18.867Z,12.34
2022-08-28T20:06:51.863Z,12.38
2022-08-28T20:09:35.152Z,12.35
2022-08-28T20:12:06.430Z,12.34
2022-08-28T20:14:43.187Z,12.26
2022-08-28T20:17:14.107Z,12.15
2022-08-28T20:19:47.387Z,12.12
2022-08-28T20:22:21.755Z,12.05
2022-08-28T20:24:55.134Z,12.04
2022-08-28T20:27:26.902Z,12.01
2022-08-28T20:29:58.165Z,12.01
2022-08-28T20:32:41.174Z,11.97
2022-08-28T20:35:16.962Z,11.94
2022-08-28T20:37:54.874Z,11.88
2022-08-28T20:40:27.740Z,11.85
2022-08-28T20:43:00.350Z,11.87
2022-08-28T20:45:31.621Z,11.81
2022-08-28T20:48:06.843Z,11.75
2022-08-28T20:50:38.410Z,11.71
2022-08-28T20:53:11.470Z,11.64
2022-08-28T20:55:42.456Z,11.60
2022-08-28T20:58:16.376Z,11.54
2022-08-28T21:00:53.435Z,11.52
2022-08-28T21:03:33.539Z,11.44
2022-08-28T21:06:06.289Z,11.39
2022-08-28T21:08:38.336Z,11.36
2022-08-28T21:11:10.571Z,11.34
2022-08-28T21:13:42.171Z,11.32
2022-08-28T21:16:13.389Z,11.30
2022-08-28T21:19:14.817Z,11.32
2022-08-28T21:21:48.483Z,11.26
2022-08-28T21:24:20.631Z,11.18
2022-08-28T21:26:57.401Z,11.20
2022-08-28T21:29:28.377Z,11.18
2022-08-28T21:32:01.275Z,11.19
2022-08-28T21:34:32.111Z,11.16
2022-08-28T21:37:03.022Z,11.16
2022-08-28T21:39:33.809Z,11.12
2022-08-28T21:42:04.680Z,11.13
2022-08-28T21:44:35.431Z,11.11
2022-08-28T21:47:05.270Z,11.12
2022-08-28T21:49:35.678Z,11.03
2022-08-28T21:52:09.247Z,11.02
2022-08-28T21:54:38.902Z,11.08
2022-08-28T21:57:09.445Z,11.05
2022-08-28T21:59:40.252Z,11.01
2022-08-28T22:02:10.783Z,10.98
2022-08-28T22:04:41.216Z,10.95
2022-08-28T22:07:13.420Z,10.89
2022-08-28T22:09:44.101Z,10.88
2022-08-28T22:12:14.556Z,10.79
2022-08-28T22:14:45.114Z,10.82
2022-08-28T22:17:16.476Z,10.82
2022-08-28T22:19:47.049Z,10.85
2022-08-28T22:22:36.213Z,10.85
2022-08-28T22:25:07.344Z,10.83
2022-08-28T22:27:37.997Z,10.73
2022-08-28T22:30:09.215Z,10.76
2022-08-28T22:32:40.749Z,10.78
2022-08-28T22:35:12.113Z,10.72
2022-08-28T22:37:42.559Z,10.71
2022-08-28T22:40:14.140Z,10.62
2022-08-28T22:42:44.675Z,10.60
2022-08-28T22:45:15.872Z,10.60
2022-08-28T22:47:47.130Z,10.58
2022-08-28T22:50:19.010Z,10.54
2022-08-28T22:52:52.865Z,10.57
2022-08-28T22:55:24.194Z,10.60
2022-08-28T22:57:56.598Z,10.55
2022-08-28T23:00:34.327Z,10.51
2022-08-28T23:03:06.693Z,10.44
2022-08-28T23:05:37.900Z,10.37
2022-08-28T23:08:09.078Z,10.34
2022-08-28T23:10:58.153Z,10.34
2022-08-28T23:13:30.978Z,10.29
2022-08-28T23:16:02.973Z,10.27
2022-08-28T23:18:51.913Z,10.22
2022-08-28T23:21:33.257Z,10.27
2022-08-28T23:24:04.438Z,10.20
2022-08-28T23:26:35.147Z,10.13
2022-08-28T23:29:08.815Z,10.16
2022-08-28T23:31:41.276Z,10.07
2022-08-28T23:34:12.670Z,10.09
2022-08-28T23:36:43.675Z,10.01
2022-08-28T23:39:15.693Z,9.97
2022-08-28T23:41:46.403Z,10.00
2022-08-28T23:44:16.559Z,10.03
2022-08-28T23:46:47.126Z,9.97
2022-08-28T23:49:18.100Z,9.96
2022-08-28T23:51:49.110Z,9.93
2022-08-28T23:54:22.648Z,9.91
2022-08-28T23:56:53.271Z,10.00
2022-08-28T23:59:24.783Z,9.99
